sensor_id;sensor_type;location;lat;lon;timestamp;P1;durP1;ratioP1;P2;durP2;ratioP2
34080;SDS011;20358;50.272;19.026;2022-09-19T00:00:17;3.27;;;2.97;;
34080;SDS011;20358;50.272;19.026;2022-09-19T00:03:24;3.47;;;2.80;;
34080;SDS011;20358;50.272;19.026;2022-09-19T00:06:30;5.40;;;3.10;;
34080;SDS011;20358;50.272;19.026;2022-09-19T00:09:38;4.17;;;3.20;;
34080;SDS011;20358;50.272;19.026;2022-09-19T00:12:44;4.77;;;3.80;;
34080;SDS011;20358;50.272;19.026;2022-09-19T00:15:54;3.67;;;3.30;;
34080;SDS011;20358;50.272;19.026;2022-09-19T00:19:00;3.33;;;2.83;;
34080;SDS011;20358;50.272;19.026;2022-09-19T00:22:09;2.40;;;2.20;;
34080;SDS011;20358;50.272;19.026;2022-09-19T00:25:15;2.37;;;2.17;;
34080;SDS011;20358;50.272;19.026;2022-09-19T00:28:19;2.67;;;2.47;;
34080;SDS011;20358;50.272;19.026;2022-09-19T00:31:30;3.77;;;2.20;;
34080;SDS011;20358;50.272;19.026;2022-09-19T00:34:38;2.67;;;2.33;;
34080;SDS011;20358;50.272;19.026;2022-09-19T00:37:45;3.37;;;2.60;;
34080;SDS011;20358;50.272;19.026;2022-09-19T00:40:52;4.37;;;3.30;;
34080;SDS011;20358;50.272;19.026;2022-09-19T00:43:59;3.93;;;3.53;;
34080;SDS011;20358;50.272;19.026;2022-09-19T00:47:11;3.47;;;3.17;;
34080;SDS011;20358;50.272;19.026;2022-09-19T00:50:19;5.93;;;3.40;;
34080;SDS011;20358;50.272;19.026;2022-09-19T00:53:30;4.93;;;3.23;;
34080;SDS011;20358;50.272;19.026;2022-09-19T00:56:36;5.87;;;3.93;;
34080;SDS011;20358;50.272;19.026;2022-09-19T00:59:47;6.37;;;3.70;;
34080;SDS011;20358;50.272;19.026;2022-09-19T01:02:56;7.03;;;3.80;;
34080;SDS011;20358;50.272;19.026;2022-09-19T01:06:09;4.73;;;3.83;;
34080;SDS011;20358;50.272;19.026;2022-09-19T01:09:33;5.87;;;4.23;;
34080;SDS011;20358;50.272;19.026;2022-09-19T01:12:49;5.53;;;4.97;;
34080;SDS011;20358;50.272;19.026;2022-09-19T01:16:03;4.30;;;3.73;;
34080;SDS011;20358;50.272;19.026;2022-09-19T01:19:22;3.47;;;3.17;;
34080;SDS011;20358;50.272;19.026;2022-09-19T01:22:43;4.00;;;3.53;;
34080;SDS011;20358;50.272;19.026;2022-09-19T01:26:03;3.23;;;2.90;;
34080;SDS011;20358;50.272;19.026;2022-09-19T01:29:19;2.90;;;2.60;;
34080;SDS011;20358;50.272;19.026;2022-09-19T01:32:30;2.80;;;2.57;;
34080;SDS011;20358;50.272;19.026;2022-09-19T01:35:40;2.83;;;2.53;;
34080;SDS011;20358;50.272;19.026;2022-09-19T01:38:48;3.13;;;2.83;;
34080;SDS011;20358;50.272;19.026;2022-09-19T01:41:59;3.37;;;2.87;;
34080;SDS011;20358;50.272;19.026;2022-09-19T01:45:11;3.03;;;2.70;;
34080;SDS011;20358;50.272;19.026;2022-09-19T01:48:18;3.30;;;2.57;;
34080;SDS011;20358;50.272;19.026;2022-09-19T01:51:31;2.93;;;2.73;;
34080;SDS011;20358;50.272;19.026;2022-09-19T01:54:46;4.53;;;2.80;;
34080;SDS011;20358;50.272;19.026;2022-09-19T01:58:01;5.27;;;3.43;;
34080;SDS011;20358;50.272;19.026;2022-09-19T02:01:19;4.33;;;3.80;;
34080;SDS011;20358;50.272;19.026;2022-09-19T02:04:32;4.27;;;3.87;;
34080;SDS011;20358;50.272;19.026;2022-09-19T02:07:48;4.57;;;4.13;;
34080;SDS011;20358;50.272;19.026;2022-09-19T02:11:05;5.00;;;4.27;;
34080;SDS011;20358;50.272;19.026;2022-09-19T02:14:18;5.17;;;4.60;;
34080;SDS011;20358;50.272;19.026;2022-09-19T02:17:37;4.80;;;4.40;;
34080;SDS011;20358;50.272;19.026;2022-09-19T02:20:54;6.27;;;4.73;;
34080;SDS011;20358;50.272;19.026;2022-09-19T02:24:06;5.63;;;4.53;;
34080;SDS011;20358;50.272;19.026;2022-09-19T02:27:18;5.97;;;4.70;;
34080;SDS011;20358;50.272;19.026;2022-09-19T02:30:26;4.80;;;4.17;;
34080;SDS011;20358;50.272;19.026;2022-09-19T02:33:37;3.73;;;3.40;;
34080;SDS011;20358;50.272;19.026;2022-09-19T02:36:49;7.03;;;3.77;;
34080;SDS011;20358;50.272;19.026;2022-09-19T02:39:59;5.50;;;3.90;;
34080;SDS011;20358;50.272;19.026;2022-09-19T02:43:17;3.60;;;3.17;;
34080;SDS011;20358;50.272;19.026;2022-09-19T02:46:34;6.70;;;4.10;;
34080;SDS011;20358;50.272;19.026;2022-09-19T02:49:48;5.50;;;3.53;;
34080;SDS011;20358;50.272;19.026;2022-09-19T02:52:58;6.17;;;3.73;;
34080;SDS011;20358;50.272;19.026;2022-09-19T02:56:08;3.43;;;3.13;;
34080;SDS011;20358;50.272;19.026;2022-09-19T02:59:20;3.90;;;3.50;;
34080;SDS011;20358;50.272;19.026;2022-09-19T03:02:34;3.90;;;3.33;;
34080;SDS011;20358;50.272;19.026;2022-09-19T03:05:47;4.53;;;3.77;;
34080;SDS011;20358;50.272;19.026;2022-09-19T03:08:54;4.70;;;3.67;;
34080;SDS011;20358;50.272;19.026;2022-09-19T03:12:07;7.40;;;5.43;;
34080;SDS011;20358;50.272;19.026;2022-09-19T03:15:24;6.27;;;4.23;;
34080;SDS011;20358;50.272;19.026;2022-09-19T03:18:39;6.93;;;4.77;;
34080;SDS011;20358;50.272;19.026;2022-09-19T03:21:53;7.70;;;5.70;;
34080;SDS011;20358;50.272;19.026;2022-09-19T03:25:08;6.40;;;5.60;;
34080;SDS011;20358;50.272;19.026;2022-09-19T03:28:16;7.27;;;5.53;;
34080;SDS011;20358;50.272;19.026;2022-09-19T03:31:27;7.37;;;5.87;;
34080;SDS011;20358;50.272;19.026;2022-09-19T03:34:37;8.77;;;6.00;;
34080;SDS011;20358;50.272;19.026;2022-09-19T03:37:48;6.40;;;5.33;;
34080;SDS011;20358;50.272;19.026;2022-09-19T03:40:56;7.63;;;5.60;;
34080;SDS011;20358;50.272;19.026;2022-09-19T03:44:03;6.23;;;5.63;;
34080;SDS011;20358;50.272;19.026;2022-09-19T03:47:12;8.47;;;5.80;;
34080;SDS011;20358;50.272;19.026;2022-09-19T03:50:19;8.70;;;5.63;;
34080;SDS011;20358;50.272;19.026;2022-09-19T03:53:41;7.03;;;5.53;;
34080;SDS011;20358;50.272;19.026;2022-09-19T03:56:50;8.93;;;5.87;;
34080;SDS011;20358;50.272;19.026;2022-09-19T03:59:57;5.57;;;4.93;;
34080;SDS011;20358;50.272;19.026;2022-09-19T04:03:08;9.00;;;5.83;;
34080;SDS011;20358;50.272;19.026;2022-09-19T04:06:15;6.07;;;5.47;;
34080;SDS011;20358;50.272;19.026;2022-09-19T04:09:25;5.93;;;5.30;;
34080;SDS011;20358;50.272;19.026;2022-09-19T04:12:34;6.87;;;5.33;;
34080;SDS011;20358;50.272;19.026;2022-09-19T04:15:42;6.87;;;5.63;;
34080;SDS011;20358;50.272;19.026;2022-09-19T04:18:49;5.80;;;5.10;;
34080;SDS011;20358;50.272;19.026;2022-09-19T04:22:31;6.07;;;5.07;;
34080;SDS011;20358;50.272;19.026;2022-09-19T04:26:01;5.13;;;4.60;;
34080;SDS011;20358;50.272;19.026;2022-09-19T04:29:10;6.37;;;5.70;;
34080;SDS011;20358;50.272;19.026;2022-09-19T04:32:17;7.43;;;5.30;;
34080;SDS011;20358;50.272;19.026;2022-09-19T04:35:29;8.80;;;6.90;;
34080;SDS011;20358;50.272;19.026;2022-09-19T04:38:39;6.80;;;5.20;;
34080;SDS011;20358;50.272;19.026;2022-09-19T04:41:57;6.70;;;6.07;;
34080;SDS011;20358;50.272;19.026;2022-09-19T04:45:05;10.97;;;8.90;;
34080;SDS011;20358;50.272;19.026;2022-09-19T04:48:24;6.50;;;5.53;;
34080;SDS011;20358;50.272;19.026;2022-09-19T04:51:30;6.73;;;6.07;;
34080;SDS011;20358;50.272;19.026;2022-09-19T04:54:37;5.07;;;4.67;;
34080;SDS011;20358;50.272;19.026;2022-09-19T04:57:47;7.20;;;5.93;;
34080;SDS011;20358;50.272;19.026;2022-09-19T05:00:54;6.70;;;5.70;;
34080;SDS011;20358;50.272;19.026;2022-09-19T05:04:02;8.17;;;5.83;;
34080;SDS011;20358;50.272;19.026;2022-09-19T05:07:09;7.43;;;6.10;;
34080;SDS011;20358;50.272;19.026;2022-09-19T05:10:17;6.40;;;5.70;;
34080;SDS011;20358;50.272;19.026;2022-09-19T05:13:28;6.50;;;5.00;;
34080;SDS011;20358;50.272;19.026;2022-09-19T05:16:35;7.07;;;5.27;;
34080;SDS011;20358;50.272;19.026;2022-09-19T05:19:42;5.63;;;4.90;;
34080;SDS011;20358;50.272;19.026;2022-09-19T05:22:48;6.03;;;5.53;;
34080;SDS011;20358;50.272;19.026;2022-09-19T05:25:54;5.93;;;5.00;;
34080;SDS011;20358;50.272;19.026;2022-09-19T05:29:05;6.90;;;5.20;;
34080;SDS011;20358;50.272;19.026;2022-09-19T05:32:22;6.83;;;5.17;;
34080;SDS011;20358;50.272;19.026;2022-09-19T05:36:04;6.37;;;5.77;;
34080;SDS011;20358;50.272;19.026;2022-09-19T05:39:37;5.53;;;5.03;;
34080;SDS011;20358;50.272;19.026;2022-09-19T05:43:09;5.57;;;5.03;;
34080;SDS011;20358;50.272;19.026;2022-09-19T05:46:19;9.03;;;7.40;;
34080;SDS011;20358;50.272;19.026;2022-09-19T05:49:31;7.00;;;5.70;;
34080;SDS011;20358;50.272;19.026;2022-09-19T05:52:39;5.87;;;5.37;;
34080;SDS011;20358;50.272;19.026;2022-09-19T05:56:04;6.37;;;5.03;;
34080;SDS011;20358;50.272;19.026;2022-09-19T05:59:20;6.37;;;4.60;;
34080;SDS011;20358;50.272;19.026;2022-09-19T06:02:29;6.77;;;4.77;;
34080;SDS011;20358;50.272;19.026;2022-09-19T06:05:40;7.77;;;5.53;;
34080;SDS011;20358;50.272;19.026;2022-09-19T06:08:52;7.20;;;6.43;;
34080;SDS011;20358;50.272;19.026;2022-09-19T06:12:08;10.37;;;5.50;;
34080;SDS011;20358;50.272;19.026;2022-09-19T06:15:14;6.90;;;5.27;;
34080;SDS011;20358;50.272;19.026;2022-09-19T06:18:24;6.77;;;5.30;;
34080;SDS011;20358;50.272;19.026;2022-09-19T06:21:38;7.17;;;5.63;;
34080;SDS011;20358;50.272;19.026;2022-09-19T06:24:45;6.27;;;5.67;;
34080;SDS011;20358;50.272;19.026;2022-09-19T06:27:53;11.77;;;6.47;;
34080;SDS011;20358;50.272;19.026;2022-09-19T06:31:02;7.07;;;5.77;;
34080;SDS011;20358;50.272;19.026;2022-09-19T06:34:21;6.87;;;6.17;;
34080;SDS011;20358;50.272;19.026;2022-09-19T06:37:48;7.80;;;6.70;;
34080;SDS011;20358;50.272;19.026;2022-09-19T06:40:54;8.77;;;7.47;;
34080;SDS011;20358;50.272;19.026;2022-09-19T06:44:20;8.77;;;7.03;;
34080;SDS011;20358;50.272;19.026;2022-09-19T06:47:36;8.87;;;7.43;;
34080;SDS011;20358;50.272;19.026;2022-09-19T06:51:10;9.80;;;7.47;;
34080;SDS011;20358;50.272;19.026;2022-09-19T06:54:16;7.87;;;7.07;;
34080;SDS011;20358;50.272;19.026;2022-09-19T06:57:24;6.90;;;6.20;;
34080;SDS011;20358;50.272;19.026;2022-09-19T07:00:31;6.60;;;5.80;;
34080;SDS011;20358;50.272;19.026;2022-09-19T07:03:42;9.33;;;6.40;;
34080;SDS011;20358;50.272;19.026;2022-09-19T07:06:56;8.30;;;6.80;;
34080;SDS011;20358;50.272;19.026;2022-09-19T07:10:04;7.53;;;6.70;;
34080;SDS011;20358;50.272;19.026;2022-09-19T07:13:10;6.87;;;6.13;;
34080;SDS011;20358;50.272;19.026;2022-09-19T07:16:24;8.03;;;5.93;;
34080;SDS011;20358;50.272;19.026;2022-09-19T07:19:31;7.50;;;6.80;;
34080;SDS011;20358;50.272;19.026;2022-09-19T07:23:12;9.03;;;8.13;;
34080;SDS011;20358;50.272;19.026;2022-09-19T07:26:22;7.83;;;6.80;;
34080;SDS011;20358;50.272;19.026;2022-09-19T07:29:30;6.17;;;5.07;;
34080;SDS011;20358;50.272;19.026;2022-09-19T07:32:35;6.00;;;5.27;;
34080;SDS011;20358;50.272;19.026;2022-09-19T07:35:42;5.67;;;5.07;;
34080;SDS011;20358;50.272;19.026;2022-09-19T07:38:53;7.07;;;6.00;;
34080;SDS011;20358;50.272;19.026;2022-09-19T07:42:21;5.07;;;4.10;;
34080;SDS011;20358;50.272;19.026;2022-09-19T07:45:43;6.37;;;3.80;;
34080;SDS011;20358;50.272;19.026;2022-09-19T07:49:12;4.20;;;3.80;;
34080;SDS011;20358;50.272;19.026;2022-09-19T07:52:39;6.13;;;5.10;;
34080;SDS011;20358;50.272;19.026;2022-09-19T07:55:52;5.13;;;4.00;;
34080;SDS011;20358;50.272;19.026;2022-09-19T07:59:01;5.00;;;4.20;;
34080;SDS011;20358;50.272;19.026;2022-09-19T08:02:20;5.03;;;4.53;;
34080;SDS011;20358;50.272;19.026;2022-09-19T08:05:27;4.47;;;4.07;;
34080;SDS011;20358;50.272;19.026;2022-09-19T08:08:36;4.13;;;3.53;;
34080;SDS011;20358;50.272;19.026;2022-09-19T08:11:55;3.43;;;2.77;;
34080;SDS011;20358;50.272;19.026;2022-09-19T08:15:05;4.10;;;3.43;;
34080;SDS011;20358;50.272;19.026;2022-09-19T08:18:12;3.60;;;3.30;;
34080;SDS011;20358;50.272;19.026;2022-09-19T08:21:22;3.27;;;2.97;;
34080;SDS011;20358;50.272;19.026;2022-09-19T08:24:28;2.83;;;2.53;;
34080;SDS011;20358;50.272;19.026;2022-09-19T08:27:45;5.33;;;3.20;;
34080;SDS011;20358;50.272;19.026;2022-09-19T08:30:50;4.30;;;2.70;;
34080;SDS011;20358;50.272;19.026;2022-09-19T08:33:58;4.00;;;2.20;;
34080;SDS011;20358;50.272;19.026;2022-09-19T08:37:04;3.23;;;1.90;;
34080;SDS011;20358;50.272;19.026;2022-09-19T08:40:16;3.00;;;2.00;;
34080;SDS011;20358;50.272;19.026;2022-09-19T08:43:33;2.77;;;2.00;;
34080;SDS011;20358;50.272;19.026;2022-09-19T08:46:47;2.13;;;1.80;;
34080;SDS011;20358;50.272;19.026;2022-09-19T08:50:04;3.20;;;2.33;;
34080;SDS011;20358;50.272;19.026;2022-09-19T08:53:21;2.57;;;2.13;;
34080;SDS011;20358;50.272;19.026;2022-09-19T08:56:32;3.50;;;2.33;;
34080;SDS011;20358;50.272;19.026;2022-09-19T08:59:47;2.60;;;2.33;;
34080;SDS011;20358;50.272;19.026;2022-09-19T09:02:59;2.33;;;2.13;;
34080;SDS011;20358;50.272;19.026;2022-09-19T09:06:23;3.87;;;2.50;;
34080;SDS011;20358;50.272;19.026;2022-09-19T09:09:41;3.73;;;2.83;;
34080;SDS011;20358;50.272;19.026;2022-09-19T09:13:09;4.30;;;3.20;;
34080;SDS011;20358;50.272;19.026;2022-09-19T09:16:52;3.80;;;3.40;;
34080;SDS011;20358;50.272;19.026;2022-09-19T09:20:30;4.13;;;3.73;;
34080;SDS011;20358;50.272;19.026;2022-09-19T09:23:47;4.20;;;3.80;;
34080;SDS011;20358;50.272;19.026;2022-09-19T09:27:13;4.97;;;4.47;;
34080;SDS011;20358;50.272;19.026;2022-09-19T09:30:25;5.40;;;4.57;;
34080;SDS011;20358;50.272;19.026;2022-09-19T09:33:40;5.17;;;4.20;;
34080;SDS011;20358;50.272;19.026;2022-09-19T09:36:52;4.60;;;4.20;;
34080;SDS011;20358;50.272;19.026;2022-09-19T09:40:08;5.67;;;4.50;;
34080;SDS011;20358;50.272;19.026;2022-09-19T09:43:44;4.77;;;4.30;;
34080;SDS011;20358;50.272;19.026;2022-09-19T09:47:01;4.43;;;4.00;;
34080;SDS011;20358;50.272;19.026;2022-09-19T09:53:50;4.40;;;3.63;;
34080;SDS011;20358;50.272;19.026;2022-09-19T09:57:10;5.00;;;3.77;;
34080;SDS011;20358;50.272;19.026;2022-09-19T10:00:19;4.27;;;3.87;;
34080;SDS011;20358;50.272;19.026;2022-09-19T10:03:48;3.73;;;3.43;;
34080;SDS011;20358;50.272;19.026;2022-09-19T10:07:26;3.83;;;3.43;;
34080;SDS011;20358;50.272;19.026;2022-09-19T10:10:48;3.97;;;3.50;;
34080;SDS011;20358;50.272;19.026;2022-09-19T10:13:59;4.27;;;3.87;;
34080;SDS011;20358;50.272;19.026;2022-09-19T10:17:10;4.77;;;4.20;;
34080;SDS011;20358;50.272;19.026;2022-09-19T10:20:19;4.90;;;4.50;;
34080;SDS011;20358;50.272;19.026;2022-09-19T10:23:35;5.00;;;4.47;;
34080;SDS011;20358;50.272;19.026;2022-09-19T10:26:48;4.90;;;4.50;;
34080;SDS011;20358;50.272;19.026;2022-09-19T10:29:57;5.00;;;4.60;;
34080;SDS011;20358;50.272;19.026;2022-09-19T10:33:15;4.13;;;3.73;;
34080;SDS011;20358;50.272;19.026;2022-09-19T10:36:33;3.93;;;3.63;;
34080;SDS011;20358;50.272;19.026;2022-09-19T10:39:54;2.87;;;2.60;;
34080;SDS011;20358;50.272;19.026;2022-09-19T10:43:18;2.40;;;2.20;;
34080;SDS011;20358;50.272;19.026;2022-09-19T10:46:27;4.03;;;2.40;;
34080;SDS011;20358;50.272;19.026;2022-09-19T10:50:11;2.27;;;2.07;;
34080;SDS011;20358;50.272;19.026;2022-09-19T10:53:32;2.40;;;2.20;;
34080;SDS011;20358;50.272;19.026;2022-09-19T10:56:42;3.07;;;2.20;;
34080;SDS011;20358;50.272;19.026;2022-09-19T10:59:49;3.20;;;2.33;;
34080;SDS011;20358;50.272;19.026;2022-09-19T11:03:04;4.10;;;2.67;;
34080;SDS011;20358;50.272;19.026;2022-09-19T11:06:32;2.63;;;2.43;;
34080;SDS011;20358;50.272;19.026;2022-09-19T11:09:39;4.80;;;2.43;;
34080;SDS011;20358;50.272;19.026;2022-09-19T11:12:51;4.53;;;3.33;;
34080;SDS011;20358;50.272;19.026;2022-09-19T11:16:14;2.93;;;2.50;;
34080;SDS011;20358;50.272;19.026;2022-09-19T11:19:33;4.90;;;3.00;;
34080;SDS011;20358;50.272;19.026;2022-09-19T11:26:26;4.57;;;3.60;;
34080;SDS011;20358;50.272;19.026;2022-09-19T11:29:48;4.10;;;3.80;;
34080;SDS011;20358;50.272;19.026;2022-09-19T11:37:16;3.67;;;3.27;;
34080;SDS011;20358;50.272;19.026;2022-09-19T11:40:45;3.60;;;3.03;;
34080;SDS011;20358;50.272;19.026;2022-09-19T11:44:19;3.33;;;2.27;;
34080;SDS011;20358;50.272;19.026;2022-09-19T11:47:54;2.17;;;1.97;;
34080;SDS011;20358;50.272;19.026;2022-09-19T11:51:15;2.33;;;2.13;;
34080;SDS011;20358;50.272;19.026;2022-09-19T11:54:39;2.60;;;2.40;;
34080;SDS011;20358;50.272;19.026;2022-09-19T11:57:57;2.80;;;2.47;;
34080;SDS011;20358;50.272;19.026;2022-09-19T12:01:24;3.37;;;2.40;;
34080;SDS011;20358;50.272;19.026;2022-09-19T12:04:47;2.77;;;2.47;;
34080;SDS011;20358;50.272;19.026;2022-09-19T12:08:09;2.73;;;2.33;;
34080;SDS011;20358;50.272;19.026;2022-09-19T12:11:28;2.13;;;1.80;;
34080;SDS011;20358;50.272;19.026;2022-09-19T12:14:42;2.80;;;2.50;;
34080;SDS011;20358;50.272;19.026;2022-09-19T12:17:57;3.43;;;2.00;;
34080;SDS011;20358;50.272;19.026;2022-09-19T12:21:20;3.13;;;2.20;;
34080;SDS011;20358;50.272;19.026;2022-09-19T12:24:29;2.73;;;2.37;;
34080;SDS011;20358;50.272;19.026;2022-09-19T12:28:06;4.10;;;2.27;;
34080;SDS011;20358;50.272;19.026;2022-09-19T12:31:22;4.73;;;2.67;;
34080;SDS011;20358;50.272;19.026;2022-09-19T12:34:35;3.77;;;2.40;;
34080;SDS011;20358;50.272;19.026;2022-09-19T12:38:06;4.43;;;2.80;;
34080;SDS011;20358;50.272;19.026;2022-09-19T12:41:34;4.47;;;3.10;;
34080;SDS011;20358;50.272;19.026;2022-09-19T12:44:51;3.83;;;2.83;;
34080;SDS011;20358;50.272;19.026;2022-09-19T12:48:09;4.03;;;3.43;;
34080;SDS011;20358;50.272;19.026;2022-09-19T12:51:46;4.30;;;3.90;;
34080;SDS011;20358;50.272;19.026;2022-09-19T12:55:06;4.37;;;3.27;;
34080;SDS011;20358;50.272;19.026;2022-09-19T12:58:23;4.23;;;3.70;;
34080;SDS011;20358;50.272;19.026;2022-09-19T13:01:34;6.60;;;3.53;;
34080;SDS011;20358;50.272;19.026;2022-09-19T13:04:44;4.30;;;3.70;;
34080;SDS011;20358;50.272;19.026;2022-09-19T13:07:57;4.93;;;4.40;;
34080;SDS011;20358;50.272;19.026;2022-09-19T13:11:11;6.77;;;4.30;;
34080;SDS011;20358;50.272;19.026;2022-09-19T13:14:25;4.87;;;4.37;;
34080;SDS011;20358;50.272;19.026;2022-09-19T13:17:37;4.43;;;4.00;;
34080;SDS011;20358;50.272;19.026;2022-09-19T13:21:05;5.90;;;4.53;;
34080;SDS011;20358;50.272;19.026;2022-09-19T13:24:29;5.27;;;3.60;;
34080;SDS011;20358;50.272;19.026;2022-09-19T13:27:48;5.47;;;3.47;;
34080;SDS011;20358;50.272;19.026;2022-09-19T13:31:33;3.30;;;3.00;;
34080;SDS011;20358;50.272;19.026;2022-09-19T13:34:42;3.60;;;3.00;;
34080;SDS011;20358;50.272;19.026;2022-09-19T13:38:18;6.07;;;3.30;;
34080;SDS011;20358;50.272;19.026;2022-09-19T13:41:39;4.73;;;3.30;;
34080;SDS011;20358;50.272;19.026;2022-09-19T13:44:52;4.93;;;3.77;;
34080;SDS011;20358;50.272;19.026;2022-09-19T13:48:08;5.43;;;3.77;;
34080;SDS011;20358;50.272;19.026;2022-09-19T13:51:28;6.10;;;3.57;;
34080;SDS011;20358;50.272;19.026;2022-09-19T13:54:37;3.10;;;2.80;;
34080;SDS011;20358;50.272;19.026;2022-09-19T13:58:17;3.87;;;3.20;;
34080;SDS011;20358;50.272;19.026;2022-09-19T14:01:38;4.03;;;3.20;;
34080;SDS011;20358;50.272;19.026;2022-09-19T14:04:46;4.90;;;3.63;;
34080;SDS011;20358;50.272;19.026;2022-09-19T14:08:01;10.97;;;4.60;;
34080;SDS011;20358;50.272;19.026;2022-09-19T14:11:28;4.47;;;2.90;;
34080;SDS011;20358;50.272;19.026;2022-09-19T14:14:52;3.70;;;2.63;;
34080;SDS011;20358;50.272;19.026;2022-09-19T14:18:04;2.47;;;2.23;;
34080;SDS011;20358;50.272;19.026;2022-09-19T14:25:00;2.70;;;2.50;;
34080;SDS011;20358;50.272;19.026;2022-09-19T14:28:17;3.33;;;2.57;;
34080;SDS011;20358;50.272;19.026;2022-09-19T14:31:37;2.83;;;2.50;;
34080;SDS011;20358;50.272;19.026;2022-09-19T14:38:38;2.03;;;1.83;;
34080;SDS011;20358;50.272;19.026;2022-09-19T14:42:08;2.47;;;2.00;;
34080;SDS011;20358;50.272;19.026;2022-09-19T14:45:30;2.47;;;1.90;;
34080;SDS011;20358;50.272;19.026;2022-09-19T14:48:55;2.87;;;1.83;;
34080;SDS011;20358;50.272;19.026;2022-09-19T14:52:12;2.07;;;1.83;;
34080;SDS011;20358;50.272;19.026;2022-09-19T14:55:24;2.47;;;2.07;;
34080;SDS011;20358;50.272;19.026;2022-09-19T14:58:33;2.50;;;2.30;;
34080;SDS011;20358;50.272;19.026;2022-09-19T15:01:40;3.90;;;2.40;;
34080;SDS011;20358;50.272;19.026;2022-09-19T15:04:47;2.93;;;2.47;;
34080;SDS011;20358;50.272;19.026;2022-09-19T15:08:01;2.63;;;1.90;;
34080;SDS011;20358;50.272;19.026;2022-09-19T15:11:20;4.33;;;2.63;;
34080;SDS011;20358;50.272;19.026;2022-09-19T15:14:27;2.97;;;2.40;;
34080;SDS011;20358;50.272;19.026;2022-09-19T15:17:34;4.00;;;2.50;;
34080;SDS011;20358;50.272;19.026;2022-09-19T15:20:42;5.47;;;3.13;;
34080;SDS011;20358;50.272;19.026;2022-09-19T15:23:52;3.33;;;2.70;;
34080;SDS011;20358;50.272;19.026;2022-09-19T15:27:03;2.63;;;2.37;;
34080;SDS011;20358;50.272;19.026;2022-09-19T15:30:13;5.37;;;2.90;;
34080;SDS011;20358;50.272;19.026;2022-09-19T15:33:24;3.53;;;2.40;;
34080;SDS011;20358;50.272;19.026;2022-09-19T15:36:34;4.23;;;2.90;;
34080;SDS011;20358;50.272;19.026;2022-09-19T15:39:45;3.57;;;2.83;;
34080;SDS011;20358;50.272;19.026;2022-09-19T15:42:52;6.07;;;3.47;;
34080;SDS011;20358;50.272;19.026;2022-09-19T15:46:24;4.37;;;3.60;;
34080;SDS011;20358;50.272;19.026;2022-09-19T15:49:45;6.77;;;5.93;;
34080;SDS011;20358;50.272;19.026;2022-09-19T15:52:55;8.00;;;5.97;;
34080;SDS011;20358;50.272;19.026;2022-09-19T15:56:08;5.33;;;4.83;;
34080;SDS011;20358;50.272;19.026;2022-09-19T15:59:20;6.33;;;5.30;;
34080;SDS011;20358;50.272;19.026;2022-09-19T16:02:28;7.87;;;6.67;;
34080;SDS011;20358;50.272;19.026;2022-09-19T16:05:39;7.70;;;5.63;;
34080;SDS011;20358;50.272;19.026;2022-09-19T16:08:46;6.43;;;5.57;;
34080;SDS011;20358;50.272;19.026;2022-09-19T16:12:31;6.47;;;4.83;;
34080;SDS011;20358;50.272;19.026;2022-09-19T16:15:39;6.03;;;5.17;;
34080;SDS011;20358;50.272;19.026;2022-09-19T16:18:50;9.60;;;5.53;;
34080;SDS011;20358;50.272;19.026;2022-09-19T16:21:56;5.93;;;5.33;;
34080;SDS011;20358;50.272;19.026;2022-09-19T16:25:10;6.03;;;4.60;;
34080;SDS011;20358;50.272;19.026;2022-09-19T16:28:26;5.27;;;4.20;;
34080;SDS011;20358;50.272;19.026;2022-09-19T16:31:39;5.23;;;4.60;;
34080;SDS011;20358;50.272;19.026;2022-09-19T16:34:49;8.00;;;4.93;;
34080;SDS011;20358;50.272;19.026;2022-09-19T16:37:58;9.57;;;5.77;;
34080;SDS011;20358;50.272;19.026;2022-09-19T16:41:12;5.63;;;4.30;;
34080;SDS011;20358;50.272;19.026;2022-09-19T16:44:35;4.77;;;4.17;;
34080;SDS011;20358;50.272;19.026;2022-09-19T16:47:47;6.43;;;4.13;;
34080;SDS011;20358;50.272;19.026;2022-09-19T16:50:56;5.93;;;3.53;;
34080;SDS011;20358;50.272;19.026;2022-09-19T16:54:03;6.53;;;4.00;;
34080;SDS011;20358;50.272;19.026;2022-09-19T16:57:15;4.83;;;3.47;;
34080;SDS011;20358;50.272;19.026;2022-09-19T17:00:21;4.53;;;3.80;;
34080;SDS011;20358;50.272;19.026;2022-09-19T17:03:31;4.60;;;3.70;;
34080;SDS011;20358;50.272;19.026;2022-09-19T17:06:37;4.17;;;3.63;;
34080;SDS011;20358;50.272;19.026;2022-09-19T17:09:44;4.97;;;4.40;;
34080;SDS011;20358;50.272;19.026;2022-09-19T17:12:49;5.80;;;4.67;;
34080;SDS011;20358;50.272;19.026;2022-09-19T17:15:57;6.10;;;4.47;;
34080;SDS011;20358;50.272;19.026;2022-09-19T17:19:10;7.40;;;4.90;;
34080;SDS011;20358;50.272;19.026;2022-09-19T17:22:17;7.37;;;5.67;;
34080;SDS011;20358;50.272;19.026;2022-09-19T17:25:25;6.93;;;5.50;;
34080;SDS011;20358;50.272;19.026;2022-09-19T17:28:37;8.43;;;5.93;;
34080;SDS011;20358;50.272;19.026;2022-09-19T17:31:43;7.50;;;6.57;;
34080;SDS011;20358;50.272;19.026;2022-09-19T17:34:53;9.07;;;6.90;;
34080;SDS011;20358;50.272;19.026;2022-09-19T17:38:03;9.33;;;7.47;;
34080;SDS011;20358;50.272;19.026;2022-09-19T17:41:10;7.33;;;6.30;;
34080;SDS011;20358;50.272;19.026;2022-09-19T17:44:16;8.60;;;7.53;;
34080;SDS011;20358;50.272;19.026;2022-09-19T17:47:23;10.13;;;7.53;;
34080;SDS011;20358;50.272;19.026;2022-09-19T17:50:48;10.07;;;7.97;;
34080;SDS011;20358;50.272;19.026;2022-09-19T17:53:55;9.37;;;7.97;;
34080;SDS011;20358;50.272;19.026;2022-09-19T17:57:03;12.63;;;7.77;;
34080;SDS011;20358;50.272;19.026;2022-09-19T18:00:10;10.07;;;8.27;;
34080;SDS011;20358;50.272;19.026;2022-09-19T18:03:17;9.83;;;7.97;;
34080;SDS011;20358;50.272;19.026;2022-09-19T18:06:24;10.13;;;8.13;;
34080;SDS011;20358;50.272;19.026;2022-09-19T18:09:30;12.27;;;8.53;;
34080;SDS011;20358;50.272;19.026;2022-09-19T18:12:38;8.67;;;6.77;;
34080;SDS011;20358;50.272;19.026;2022-09-19T18:15:45;8.80;;;7.03;;
34080;SDS011;20358;50.272;19.026;2022-09-19T18:18:52;10.13;;;7.07;;
34080;SDS011;20358;50.272;19.026;2022-09-19T18:22:01;7.77;;;6.23;;
34080;SDS011;20358;50.272;19.026;2022-09-19T18:25:09;8.07;;;6.53;;
34080;SDS011;20358;50.272;19.026;2022-09-19T18:28:17;8.17;;;7.20;;
34080;SDS011;20358;50.272;19.026;2022-09-19T18:31:25;8.93;;;7.63;;
34080;SDS011;20358;50.272;19.026;2022-09-19T18:34:32;9.07;;;7.93;;
34080;SDS011;20358;50.272;19.026;2022-09-19T18:41:25;12.57;;;10.43;;
34080;SDS011;20358;50.272;19.026;2022-09-19T18:44:33;11.20;;;8.77;;
34080;SDS011;20358;50.272;19.026;2022-09-19T18:47:39;10.33;;;9.27;;
34080;SDS011;20358;50.272;19.026;2022-09-19T18:50:45;13.33;;;10.50;;
34080;SDS011;20358;50.272;19.026;2022-09-19T18:53:55;11.67;;;9.43;;
34080;SDS011;20358;50.272;19.026;2022-09-19T18:57:05;10.87;;;9.10;;
34080;SDS011;20358;50.272;19.026;2022-09-19T19:00:11;11.57;;;9.37;;
34080;SDS011;20358;50.272;19.026;2022-09-19T19:03:18;10.13;;;9.10;;
34080;SDS011;20358;50.272;19.026;2022-09-19T19:06:25;15.73;;;9.67;;
34080;SDS011;20358;50.272;19.026;2022-09-19T19:09:35;12.50;;;10.27;;
34080;SDS011;20358;50.272;19.026;2022-09-19T19:12:41;11.07;;;9.83;;
34080;SDS011;20358;50.272;19.026;2022-09-19T19:15:59;11.33;;;10.20;;
34080;SDS011;20358;50.272;19.026;2022-09-19T19:19:08;13.70;;;11.97;;
34080;SDS011;20358;50.272;19.026;2022-09-19T19:22:16;11.83;;;10.57;;
34080;SDS011;20358;50.272;19.026;2022-09-19T19:25:24;13.80;;;11.73;;
34080;SDS011;20358;50.272;19.026;2022-09-19T19:28:32;14.00;;;12.57;;
34080;SDS011;20358;50.272;19.026;2022-09-19T19:31:38;14.63;;;11.67;;